sensor_id;sensor_type;location;lat;lon;timestamp;temperature;humidity
9824;DHT22;4951;50.778;7.196;2024-01-07T00:00:30;2.80;53.80
9824;DHT22;4951;50.778;7.196;2024-01-07T00:03:13;2.80;55.70
9824;DHT22;4951;50.778;7.196;2024-01-07T00:05:50;2.80;52.00
9824;DHT22;4951;50.778;7.196;2024-01-07T00:08:31;2.80;51.60
9824;DHT22;4951;50.778;7.196;2024-01-07T00:11:05;2.80;49.80
9824;DHT22;4951;50.778;7.196;2024-01-07T00:13:56;2.80;48.20
9824;DHT22;4951;50.778;7.196;2024-01-07T00:16:28;2.80;43.20
9824;DHT22;4951;50.778;7.196;2024-01-07T00:18:56;2.80;42.60
9824;DHT22;4951;50.778;7.196;2024-01-07T00:21:32;2.80;41.80
9824;DHT22;4951;50.778;7.196;2024-01-07T00:24:12;2.80;41.60
9824;DHT22;4951;50.778;7.196;2024-01-07T00:26:55;2.80;39.70
9824;DHT22;4951;50.778;7.196;2024-01-07T00:29:28;2.80;40.60
9824;DHT22;4951;50.778;7.196;2024-01-07T00:32:10;2.80;40.30
9824;DHT22;4951;50.778;7.196;2024-01-07T00:34:39;2.80;39.80
9824;DHT22;4951;50.778;7.196;2024-01-07T00:37:09;2.80;39.40
9824;DHT22;4951;50.778;7.196;2024-01-07T00:39:39;2.80;38.10
9824;DHT22;4951;50.778;7.196;2024-01-07T00:42:09;2.80;37.20
9824;DHT22;4951;50.778;7.196;2024-01-07T00:44:41;2.80;36.90
9824;DHT22;4951;50.778;7.196;2024-01-07T00:47:12;2.80;33.90
9824;DHT22;4951;50.778;7.196;2024-01-07T00:49:42;2.80;33.80
9824;DHT22;4951;50.778;7.196;2024-01-07T00:52:10;2.80;34.60
9824;DHT22;4951;50.778;7.196;2024-01-07T00:54:42;2.80;33.80
9824;DHT22;4951;50.778;7.196;2024-01-07T00:57:34;2.80;32.40
9824;DHT22;4951;50.778;7.196;2024-01-07T01:00:11;2.80;29.50
9824;DHT22;4951;50.778;7.196;2024-01-07T01:02:48;2.80;26.20
9824;DHT22;4951;50.778;7.196;2024-01-07T01:05:27;2.80;26.30
9824;DHT22;4951;50.778;7.196;2024-01-07T01:08:01;2.80;24.20
9824;DHT22;4951;50.778;7.196;2024-01-07T01:10:32;2.80;22.80
9824;DHT22;4951;50.778;7.196;2024-01-07T01:13:00;2.80;22.00
9824;DHT22;4951;50.778;7.196;2024-01-07T01:15:33;2.80;20.40
9824;DHT22;4951;50.778;7.196;2024-01-07T01:18:15;2.80;20.70
9824;DHT22;4951;50.778;7.196;2024-01-07T01:20:53;2.80;20.30
9824;DHT22;4951;50.778;7.196;2024-01-07T01:23:40;2.80;20.20
9824;DHT22;4951;50.778;7.196;2024-01-07T01:26:17;2.80;17.90
9824;DHT22;4951;50.778;7.196;2024-01-07T01:28:52;2.80;16.00
9824;DHT22;4951;50.778;7.196;2024-01-07T01:31:24;2.80;17.50
9824;DHT22;4951;50.778;7.196;2024-01-07T01:33:59;2.80;13.60
9824;DHT22;4951;50.778;7.196;2024-01-07T01:36:34;2.80;12.70
9824;DHT22;4951;50.778;7.196;2024-01-07T01:39:13;2.80;10.80
9824;DHT22;4951;50.778;7.196;2024-01-07T01:41:46;2.80;9.90
9824;DHT22;4951;50.778;7.196;2024-01-07T01:44:24;2.80;9.10
9824;DHT22;4951;50.778;7.196;2024-01-07T01:47:04;2.80;8.20
9824;DHT22;4951;50.778;7.196;2024-01-07T01:49:35;2.80;9.30
9824;DHT22;4951;50.778;7.196;2024-01-07T01:52:09;2.80;9.40
9824;DHT22;4951;50.778;7.196;2024-01-07T01:54:42;2.80;9.00
9824;DHT22;4951;50.778;7.196;2024-01-07T01:57:22;2.80;7.20
9824;DHT22;4951;50.778;7.196;2024-01-07T02:00:08;2.90;7.00
9824;DHT22;4951;50.778;7.196;2024-01-07T02:02:48;2.90;7.80
9824;DHT22;4951;50.778;7.196;2024-01-07T02:05:23;2.90;7.40
9824;DHT22;4951;50.778;7.196;2024-01-07T02:07:52;2.90;7.20
9824;DHT22;4951;50.778;7.196;2024-01-07T02:10:23;2.90;6.20
9824;DHT22;4951;50.778;7.196;2024-01-07T02:12:58;2.90;5.70
9824;DHT22;4951;50.778;7.196;2024-01-07T02:15:31;2.90;5.90
9824;DHT22;4951;50.778;7.196;2024-01-07T02:18:17;2.90;6.30
9824;DHT22;4951;50.778;7.196;2024-01-07T02:20:49;2.90;3.80
9824;DHT22;4951;50.778;7.196;2024-01-07T02:23:22;2.90;1.00
9824;DHT22;4951;50.778;7.196;2024-01-07T02:26:31;2.90;1.00
9824;DHT22;4951;50.778;7.196;2024-01-07T02:29:01;2.90;1.00
9824;DHT22;4951;50.778;7.196;2024-01-07T02:31:36;2.90;1.00
9824;DHT22;4951;50.778;7.196;2024-01-07T02:34:09;2.80;1.00
9824;DHT22;4951;50.778;7.196;2024-01-07T02:36:47;2.80;1.00
9824;DHT22;4951;50.778;7.196;2024-01-07T02:39:19;2.80;1.00
9824;DHT22;4951;50.778;7.196;2024-01-07T02:41:53;2.90;1.00
9824;DHT22;4951;50.778;7.196;2024-01-07T02:44:21;2.90;1.00
9824;DHT22;4951;50.778;7.196;2024-01-07T02:46:51;2.90;1.00
9824;DHT22;4951;50.778;7.196;2024-01-07T02:49:23;2.80;1.00
9824;DHT22;4951;50.778;7.196;2024-01-07T02:52:00;2.90;1.00
9824;DHT22;4951;50.778;7.196;2024-01-07T02:54:34;2.90;1.00
9824;DHT22;4951;50.778;7.196;2024-01-07T02:57:07;2.90;1.00
9824;DHT22;4951;50.778;7.196;2024-01-07T02:59:37;2.90;1.00
9824;DHT22;4951;50.778;7.196;2024-01-07T03:02:47;2.90;1.00
9824;DHT22;4951;50.778;7.196;2024-01-07T03:05:13;2.90;1.00
9824;DHT22;4951;50.778;7.196;2024-01-07T03:07:46;2.90;1.00
9824;DHT22;4951;50.778;7.196;2024-01-07T03:10:29;2.90;1.00
9824;DHT22;4951;50.778;7.196;2024-01-07T03:13:36;2.90;1.00
9824;DHT22;4951;50.778;7.196;2024-01-07T03:16:22;2.90;1.00
9824;DHT22;4951;50.778;7.196;2024-01-07T03:19:03;2.90;1.00
9824;DHT22;4951;50.778;7.196;2024-01-07T03:21:35;2.90;1.00
9824;DHT22;4951;50.778;7.196;2024-01-07T03:24:16;2.90;1.00
9824;DHT22;4951;50.778;7.196;2024-01-07T03:26:47;2.90;1.00
9824;DHT22;4951;50.778;7.196;2024-01-07T03:29:47;2.90;1.00
9824;DHT22;4951;50.778;7.196;2024-01-07T03:32:21;2.90;1.00
9824;DHT22;4951;50.778;7.196;2024-01-07T03:34:56;2.90;1.00
9824;DHT22;4951;50.778;7.196;2024-01-07T03:37:26;2.90;1.00
9824;DHT22;4951;50.778;7.196;2024-01-07T03:39:54;2.90;1.00
9824;DHT22;4951;50.778;7.196;2024-01-07T03:42:27;2.90;1.00
9824;DHT22;4951;50.778;7.196;2024-01-07T03:45:03;2.80;1.00
9824;DHT22;4951;50.778;7.196;2024-01-07T03:47:39;2.90;1.00
9824;DHT22;4951;50.778;7.196;2024-01-07T03:50:15;2.80;1.00
9824;DHT22;4951;50.778;7.196;2024-01-07T03:53:04;2.90;1.00
9824;DHT22;4951;50.778;7.196;2024-01-07T03:55:43;2.80;1.00
9824;DHT22;4951;50.778;7.196;2024-01-07T03:58:16;2.90;1.00
9824;DHT22;4951;50.778;7.196;2024-01-07T04:00:53;2.80;1.00
9824;DHT22;4951;50.778;7.196;2024-01-07T04:03:32;2.80;1.00
9824;DHT22;4951;50.778;7.196;2024-01-07T04:06:00;2.80;1.00
9824;DHT22;4951;50.778;7.196;2024-01-07T04:08:36;2.80;1.00
9824;DHT22;4951;50.778;7.196;2024-01-07T04:11:56;2.70;1.00
9824;DHT22;4951;50.778;7.196;2024-01-07T04:14:40;2.80;1.00
9824;DHT22;4951;50.778;7.196;2024-01-07T04:17:37;2.80;1.00
9824;DHT22;4951;50.778;7.196;2024-01-07T04:20:18;2.80;1.00
9824;DHT22;4951;50.778;7.196;2024-01-07T04:22:51;2.70;1.00
9824;DHT22;4951;50.778;7.196;2024-01-07T04:25:23;2.70;1.00
9824;DHT22;4951;50.778;7.196;2024-01-07T04:28:10;2.80;1.00
9824;DHT22;4951;50.778;7.196;2024-01-07T04:30:46;2.70;1.00
9824;DHT22;4951;50.778;7.196;2024-01-07T04:33:26;2.70;1.00
9824;DHT22;4951;50.778;7.196;2024-01-07T04:35:57;2.70;1.00
9824;DHT22;4951;50.778;7.196;2024-01-07T04:38:46;2.70;1.00
9824;DHT22;4951;50.778;7.196;2024-01-07T04:41:17;2.70;1.00
9824;DHT22;4951;50.778;7.196;2024-01-07T04:43:57;2.70;1.00
9824;DHT22;4951;50.778;7.196;2024-01-07T04:46:33;2.60;1.00
9824;DHT22;4951;50.778;7.196;2024-01-07T04:49:07;2.60;1.00
9824;DHT22;4951;50.778;7.196;2024-01-07T04:52:12;2.60;1.00
9824;DHT22;4951;50.778;7.196;2024-01-07T04:54:54;2.60;1.00
9824;DHT22;4951;50.778;7.196;2024-01-07T04:57:28;2.50;1.00
9824;DHT22;4951;50.778;7.196;2024-01-07T05:00:08;2.50;1.00
9824;DHT22;4951;50.778;7.196;2024-01-07T05:02:45;2.50;1.00
9824;DHT22;4951;50.778;7.196;2024-01-07T05:05:32;2.50;1.00
9824;DHT22;4951;50.778;7.196;2024-01-07T05:08:08;2.50;1.00
9824;DHT22;4951;50.778;7.196;2024-01-07T05:10:55;2.40;1.00
9824;DHT22;4951;50.778;7.196;2024-01-07T05:13:28;2.50;1.00
9824;DHT22;4951;50.778;7.196;2024-01-07T05:16:02;2.40;1.00
9824;DHT22;4951;50.778;7.196;2024-01-07T05:18:39;2.40;1.00
9824;DHT22;4951;50.778;7.196;2024-01-07T05:21:15;2.40;1.00
9824;DHT22;4951;50.778;7.196;2024-01-07T05:23:52;2.40;1.00
9824;DHT22;4951;50.778;7.196;2024-01-07T05:26:38;2.40;1.00
9824;DHT22;4951;50.778;7.196;2024-01-07T05:29:16;2.40;1.00
9824;DHT22;4951;50.778;7.196;2024-01-07T05:32:04;2.40;1.00
9824;DHT22;4951;50.778;7.196;2024-01-07T05:34:50;2.40;1.00
9824;DHT22;4951;50.778;7.196;2024-01-07T05:37:36;2.40;1.00
9824;DHT22;4951;50.778;7.196;2024-01-07T05:40:05;2.40;1.00
9824;DHT22;4951;50.778;7.196;2024-01-07T05:42:36;2.40;1.00
9824;DHT22;4951;50.778;7.196;2024-01-07T05:45:16;2.40;1.00
9824;DHT22;4951;50.778;7.196;2024-01-07T05:48:49;2.30;1.00
9824;DHT22;4951;50.778;7.196;2024-01-07T05:51:18;2.30;1.00
9824;DHT22;4951;50.778;7.196;2024-01-07T05:54:00;2.30;1.00
9824;DHT22;4951;50.778;7.196;2024-01-07T05:56:30;2.20;1.00
9824;DHT22;4951;50.778;7.196;2024-01-07T05:59:00;2.20;1.00
9824;DHT22;4951;50.778;7.196;2024-01-07T06:01:29;2.10;1.00
9824;DHT22;4951;50.778;7.196;2024-01-07T06:04:10;2.00;1.00
9824;DHT22;4951;50.778;7.196;2024-01-07T06:07:20;2.00;1.00
9824;DHT22;4951;50.778;7.196;2024-01-07T06:10:06;2.00;1.00
9824;DHT22;4951;50.778;7.196;2024-01-07T06:12:48;1.90;1.00
9824;DHT22;4951;50.778;7.196;2024-01-07T06:15:31;2.00;1.00
9824;DHT22;4951;50.778;7.196;2024-01-07T06:18:01;2.00;1.00
9824;DHT22;4951;50.778;7.196;2024-01-07T06:20:48;2.00;1.00
9824;DHT22;4951;50.778;7.196;2024-01-07T06:23:21;2.00;1.00
9824;DHT22;4951;50.778;7.196;2024-01-07T06:25:58;2.00;1.00
9824;DHT22;4951;50.778;7.196;2024-01-07T06:28:48;2.00;1.00
9824;DHT22;4951;50.778;7.196;2024-01-07T06:31:36;2.00;1.00
9824;DHT22;4951;50.778;7.196;2024-01-07T06:34:11;2.00;1.10
9824;DHT22;4951;50.778;7.196;2024-01-07T06:36:51;2.00;1.00
9824;DHT22;4951;50.778;7.196;2024-01-07T06:39:23;2.00;1.00
9824;DHT22;4951;50.778;7.196;2024-01-07T06:42:03;2.00;1.50
9824;DHT22;4951;50.778;7.196;2024-01-07T06:44:36;2.00;1.60
9824;DHT22;4951;50.778;7.196;2024-01-07T06:47:13;2.00;2.10
9824;DHT22;4951;50.778;7.196;2024-01-07T06:49:42;2.00;1.30
9824;DHT22;4951;50.778;7.196;2024-01-07T06:52:10;2.00;4.00
9824;DHT22;4951;50.778;7.196;2024-01-07T06:54:40;2.00;4.50
9824;DHT22;4951;50.778;7.196;2024-01-07T06:57:11;2.10;4.40
9824;DHT22;4951;50.778;7.196;2024-01-07T06:59:53;2.00;5.00
9824;DHT22;4951;50.778;7.196;2024-01-07T07:02:21;2.00;5.40
9824;DHT22;4951;50.778;7.196;2024-01-07T07:04:56;2.10;7.30
9824;DHT22;4951;50.778;7.196;2024-01-07T07:07:39;2.00;7.80
9824;DHT22;4951;50.778;7.196;2024-01-07T07:10:18;2.10;8.10
9824;DHT22;4951;50.778;7.196;2024-01-07T07:12:47;2.10;7.30
9824;DHT22;4951;50.778;7.196;2024-01-07T07:15:18;2.00;7.80
9824;DHT22;4951;50.778;7.196;2024-01-07T07:17:49;2.10;9.70
9824;DHT22;4951;50.778;7.196;2024-01-07T07:20:22;2.10;10.10
9824;DHT22;4951;50.778;7.196;2024-01-07T07:22:55;2.10;11.60
9824;DHT22;4951;50.778;7.196;2024-01-07T07:25:25;2.10;13.70
9824;DHT22;4951;50.778;7.196;2024-01-07T07:28:04;2.10;14.30
9824;DHT22;4951;50.778;7.196;2024-01-07T07:30:42;2.10;12.00
9824;DHT22;4951;50.778;7.196;2024-01-07T07:33:12;2.10;10.70
9824;DHT22;4951;50.778;7.196;2024-01-07T07:35:49;2.10;8.80
9824;DHT22;4951;50.778;7.196;2024-01-07T07:38:26;2.10;8.30
9824;DHT22;4951;50.778;7.196;2024-01-07T07:41:01;2.10;8.60
9824;DHT22;4951;50.778;7.196;2024-01-07T07:43:35;2.10;11.10
9824;DHT22;4951;50.778;7.196;2024-01-07T07:46:03;2.10;12.90
9824;DHT22;4951;50.778;7.196;2024-01-07T07:48:36;2.10;14.40
9824;DHT22;4951;50.778;7.196;2024-01-07T07:51:09;2.10;13.20
9824;DHT22;4951;50.778;7.196;2024-01-07T07:53:38;2.10;12.20
9824;DHT22;4951;50.778;7.196;2024-01-07T07:56:07;2.10;12.80
9824;DHT22;4951;50.778;7.196;2024-01-07T07:58:37;2.10;14.30
9824;DHT22;4951;50.778;7.196;2024-01-07T08:01:05;2.10;13.00
9824;DHT22;4951;50.778;7.196;2024-01-07T08:03:40;2.10;14.60
9824;DHT22;4951;50.778;7.196;2024-01-07T08:06:09;2.20;14.80
9824;DHT22;4951;50.778;7.196;2024-01-07T08:08:38;2.20;13.80
9824;DHT22;4951;50.778;7.196;2024-01-07T08:11:10;2.20;10.60
9824;DHT22;4951;50.778;7.196;2024-01-07T08:13:41;2.20;9.80
9824;DHT22;4951;50.778;7.196;2024-01-07T08:16:11;2.10;8.00
9824;DHT22;4951;50.778;7.196;2024-01-07T08:18:40;2.20;8.90
9824;DHT22;4951;50.778;7.196;2024-01-07T08:21:08;2.20;10.10
9824;DHT22;4951;50.778;7.196;2024-01-07T08:23:38;2.10;10.00
9824;DHT22;4951;50.778;7.196;2024-01-07T08:26:07;2.20;10.60
9824;DHT22;4951;50.778;7.196;2024-01-07T08:28:42;2.20;10.80
9824;DHT22;4951;50.778;7.196;2024-01-07T08:31:12;2.20;10.50
9824;DHT22;4951;50.778;7.196;2024-01-07T08:33:43;2.20;10.00
9824;DHT22;4951;50.778;7.196;2024-01-07T08:36:13;2.20;9.00
9824;DHT22;4951;50.778;7.196;2024-01-07T08:38:41;2.20;6.90
9824;DHT22;4951;50.778;7.196;2024-01-07T08:41:09;2.20;6.00
9824;DHT22;4951;50.778;7.196;2024-01-07T08:43:39;2.20;4.20
9824;DHT22;4951;50.778;7.196;2024-01-07T08:46:08;2.20;1.00
9824;DHT22;4951;50.778;7.196;2024-01-07T08:48:45;2.20;1.00
9824;DHT22;4951;50.778;7.196;2024-01-07T08:51:14;2.20;1.00
9824;DHT22;4951;50.778;7.196;2024-01-07T08:53:42;2.20;1.00
9824;DHT22;4951;50.778;7.196;2024-01-07T08:56:18;2.20;1.00
9824;DHT22;4951;50.778;7.196;2024-01-07T08:58:47;2.30;1.00
9824;DHT22;4951;50.778;7.196;2024-01-07T09:01:16;2.30;1.00
9824;DHT22;4951;50.778;7.196;2024-01-07T09:03:45;2.30;1.00
9824;DHT22;4951;50.778;7.196;2024-01-07T09:06:18;2.30;1.00
9824;DHT22;4951;50.778;7.196;2024-01-07T09:09:00;2.30;1.00
9824;DHT22;4951;50.778;7.196;2024-01-07T09:11:32;2.30;1.00
9824;DHT22;4951;50.778;7.196;2024-01-07T09:14:07;2.40;1.00
9824;DHT22;4951;50.778;7.196;2024-01-07T09:16:39;2.40;1.00
9824;DHT22;4951;50.778;7.196;2024-01-07T09:19:23;2.40;1.00
9824;DHT22;4951;50.778;7.196;2024-01-07T09:21:56;2.40;1.00
9824;DHT22;4951;50.778;7.196;2024-01-07T09:24:24;2.40;1.00
9824;DHT22;4951;50.778;7.196;2024-01-07T09:27:04;2.40;1.00
9824;DHT22;4951;50.778;7.196;2024-01-07T09:29:37;2.40;1.00
9824;DHT22;4951;50.778;7.196;2024-01-07T09:32:16;2.40;1.00
9824;DHT22;4951;50.778;7.196;2024-01-07T09:35:15;2.40;1.00
9824;DHT22;4951;50.778;7.196;2024-01-07T09:37:54;2.30;1.00
9824;DHT22;4951;50.778;7.196;2024-01-07T09:40:51;2.30;1.00
9824;DHT22;4951;50.778;7.196;2024-01-07T09:43:26;2.30;1.00
9824;DHT22;4951;50.778;7.196;2024-01-07T09:46:00;2.30;1.00
9824;DHT22;4951;50.778;7.196;2024-01-07T09:48:35;2.30;1.00
9824;DHT22;4951;50.778;7.196;2024-01-07T09:51:21;2.30;1.00
9824;DHT22;4951;50.778;7.196;2024-01-07T09:54:02;2.30;1.00
9824;DHT22;4951;50.778;7.196;2024-01-07T09:56:51;2.30;1.00
9824;DHT22;4951;50.778;7.196;2024-01-07T09:59:22;2.30;1.00
9824;DHT22;4951;50.778;7.196;2024-01-07T10:02:11;2.30;1.00
9824;DHT22;4951;50.778;7.196;2024-01-07T10:04:51;2.30;1.00
9824;DHT22;4951;50.778;7.196;2024-01-07T10:07:32;2.30;1.00
9824;DHT22;4951;50.778;7.196;2024-01-07T10:10:18;2.40;1.00
9824;DHT22;4951;50.778;7.196;2024-01-07T10:12:48;2.40;1.00
9824;DHT22;4951;50.778;7.196;2024-01-07T10:15:16;2.50;1.00
9824;DHT22;4951;50.778;7.196;2024-01-07T10:17:48;2.50;1.00
9824;DHT22;4951;50.778;7.196;2024-01-07T10:24:07;2.50;1.00
9824;DHT22;4951;50.778;7.196;2024-01-07T10:26:51;2.50;1.00
9824;DHT22;4951;50.778;7.196;2024-01-07T10:29:27;2.40;1.00
9824;DHT22;4951;50.778;7.196;2024-01-07T10:31:57;2.40;1.00
9824;DHT22;4951;50.778;7.196;2024-01-07T10:34:34;2.50;1.00
9824;DHT22;4951;50.778;7.196;2024-01-07T10:37:04;2.40;1.00
9824;DHT22;4951;50.778;7.196;2024-01-07T10:39:35;2.40;1.00
9824;DHT22;4951;50.778;7.196;2024-01-07T10:42:03;2.40;1.00
9824;DHT22;4951;50.778;7.196;2024-01-07T10:44:33;2.40;1.00
9824;DHT22;4951;50.778;7.196;2024-01-07T10:47:07;2.40;1.00
9824;DHT22;4951;50.778;7.196;2024-01-07T10:49:42;2.40;1.00
9824;DHT22;4951;50.778;7.196;2024-01-07T10:52:17;2.50;1.00
9824;DHT22;4951;50.778;7.196;2024-01-07T10:54:47;2.50;1.00
9824;DHT22;4951;50.778;7.196;2024-01-07T10:57:21;2.50;1.00
9824;DHT22;4951;50.778;7.196;2024-01-07T10:59:52;2.60;1.00
9824;DHT22;4951;50.778;7.196;2024-01-07T11:02:22;2.60;1.00
9824;DHT22;4951;50.778;7.196;2024-01-07T11:05:00;2.60;1.00
9824;DHT22;4951;50.778;7.196;2024-01-07T11:08:06;2.60;1.00
9824;DHT22;4951;50.778;7.196;2024-01-07T11:10:54;2.70;1.00
9824;DHT22;4951;50.778;7.196;2024-01-07T11:13:35;2.70;1.00
9824;DHT22;4951;50.778;7.196;2024-01-07T11:16:41;2.60;1.00
9824;DHT22;4951;50.778;7.196;2024-01-07T11:19:55;2.60;1.00
9824;DHT22;4951;50.778;7.196;2024-01-07T11:23:12;2.70;1.00
9824;DHT22;4951;50.778;7.196;2024-01-07T11:29:50;2.60;1.00
9824;DHT22;4951;50.778;7.196;2024-01-07T11:32:29;2.60;1.00
9824;DHT22;4951;50.778;7.196;2024-01-07T11:35:10;2.60;1.00
9824;DHT22;4951;50.778;7.196;2024-01-07T11:37:46;2.60;1.00
9824;DHT22;4951;50.778;7.196;2024-01-07T11:40:42;2.60;1.00
9824;DHT22;4951;50.778;7.196;2024-01-07T11:43:29;2.60;1.00
9824;DHT22;4951;50.778;7.196;2024-01-07T11:46:16;2.60;1.00
9824;DHT22;4951;50.778;7.196;2024-01-07T11:48:45;2.60;1.00
9824;DHT22;4951;50.778;7.196;2024-01-07T11:51:54;2.70;1.00
9824;DHT22;4951;50.778;7.196;2024-01-07T11:54:48;2.70;1.00
9824;DHT22;4951;50.778;7.196;2024-01-07T11:57:28;2.70;1.00
9824;DHT22;4951;50.778;7.196;2024-01-07T12:00:12;2.70;1.00
9824;DHT22;4951;50.778;7.196;2024-01-07T12:02:45;2.70;1.00
9824;DHT22;4951;50.778;7.196;2024-01-07T12:05:17;2.60;1.00
9824;DHT22;4951;50.778;7.196;2024-01-07T12:07:53;2.60;1.00
9824;DHT22;4951;50.778;7.196;2024-01-07T12:10:24;2.60;1.00
9824;DHT22;4951;50.778;7.196;2024-01-07T12:13:00;2.60;1.00
9824;DHT22;4951;50.778;7.196;2024-01-07T12:15:31;2.60;1.00
9824;DHT22;4951;50.778;7.196;2024-01-07T12:18:05;2.60;1.00
9824;DHT22;4951;50.778;7.196;2024-01-07T12:20:35;2.60;1.00
9824;DHT22;4951;50.778;7.196;2024-01-07T12:23:07;2.60;1.00
9824;DHT22;4951;50.778;7.196;2024-01-07T12:25:35;2.60;1.00
9824;DHT22;4951;50.778;7.196;2024-01-07T12:28:06;2.60;1.00
9824;DHT22;4951;50.778;7.196;2024-01-07T12:30:36;2.60;1.00
9824;DHT22;4951;50.778;7.196;2024-01-07T12:33:07;2.60;1.00
9824;DHT22;4951;50.778;7.196;2024-01-07T12:35:37;2.60;1.00
9824;DHT22;4951;50.778;7.196;2024-01-07T12:38:12;2.50;1.00
9824;DHT22;4951;50.778;7.196;2024-01-07T12:41:05;2.50;1.00
9824;DHT22;4951;50.778;7.196;2024-01-07T12:43:36;2.50;1.00
9824;DHT22;4951;50.778;7.196;2024-01-07T12:46:06;2.50;1.00
9824;DHT22;4951;50.778;7.196;2024-01-07T12:48:37;2.50;1.00
9824;DHT22;4951;50.778;7.196;2024-01-07T12:51:10;2.40;1.00
9824;DHT22;4951;50.778;7.196;2024-01-07T12:53:47;2.40;1.00
9824;DHT22;4951;50.778;7.196;2024-01-07T12:56:17;2.30;1.00
9824;DHT22;4951;50.778;7.196;2024-01-07T12:58:48;2.30;1.00
9824;DHT22;4951;50.778;7.196;2024-01-07T13:01:22;2.30;1.00
9824;DHT22;4951;50.778;7.196;2024-01-07T13:04:05;2.20;1.00
9824;DHT22;4951;50.778;7.196;2024-01-07T13:06:34;2.20;1.00
9824;DHT22;4951;50.778;7.196;2024-01-07T13:09:27;2.20;1.00
9824;DHT22;4951;50.778;7.196;2024-01-07T13:11:59;2.30;1.00
9824;DHT22;4951;50.778;7.196;2024-01-07T13:14:28;2.30;1.00
9824;DHT22;4951;50.778;7.196;2024-01-07T13:17:22;2.30;1.00
9824;DHT22;4951;50.778;7.196;2024-01-07T13:19:53;2.40;99.90
9824;DHT22;4951;50.778;7.196;2024-01-07T13:22:26;2.40;99.90
9824;DHT22;4951;50.778;7.196;2024-01-07T13:25:02;2.40;99.90
9824;DHT22;4951;50.778;7.196;2024-01-07T13:27:37;2.30;99.90
9824;DHT22;4951;50.778;7.196;2024-01-07T13:30:05;2.30;99.90
9824;DHT22;4951;50.778;7.196;2024-01-07T13:32:36;2.20;99.90
9824;DHT22;4951;50.778;7.196;2024-01-07T13:35:07;2.20;99.90
9824;DHT22;4951;50.778;7.196;2024-01-07T13:37:46;2.10;37.80
9824;DHT22;4951;50.778;7.196;2024-01-07T13:40:20;2.10;29.30
9824;DHT22;4951;50.778;7.196;2024-01-07T13:43:04;2.00;1.00
9824;DHT22;4951;50.778;7.196;2024-01-07T13:45:49;1.90;1.00
9824;DHT22;4951;50.778;7.196;2024-01-07T13:48:20;1.80;1.00
9824;DHT22;4951;50.778;7.196;2024-01-07T13:50:49;1.70;1.00
9824;DHT22;4951;50.778;7.196;2024-01-07T13:53:19;1.70;1.00
9824;DHT22;4951;50.778;7.196;2024-01-07T13:55:49;1.60;1.00
9824;DHT22;4951;50.778;7.196;2024-01-07T13:58:18;1.60;1.00
9824;DHT22;4951;50.778;7.196;2024-01-07T14:01:08;1.50;1.00
9824;DHT22;4951;50.778;7.196;2024-01-07T14:03:46;1.50;1.00
9824;DHT22;4951;50.778;7.196;2024-01-07T14:06:16;1.50;1.00
9824;DHT22;4951;50.778;7.196;2024-01-07T14:08:46;1.50;1.00
9824;DHT22;4951;50.778;7.196;2024-01-07T14:11:15;1.50;1.00
9824;DHT22;4951;50.778;7.196;2024-01-07T14:13:44;1.40;1.00
9824;DHT22;4951;50.778;7.196;2024-01-07T14:16:22;1.40;1.00
9824;DHT22;4951;50.778;7.196;2024-01-07T14:18:53;1.30;99.90
9824;DHT22;4951;50.778;7.196;2024-01-07T14:21:23;1.30;99.90
9824;DHT22;4951;50.778;7.196;2024-01-07T14:23:54;1.30;99.90
9824;DHT22;4951;50.778;7.196;2024-01-07T14:26:22;1.20;99.90
9824;DHT22;4951;50.778;7.196;2024-01-07T14:28:51;1.20;99.90
9824;DHT22;4951;50.778;7.196;2024-01-07T14:31:22;1.10;99.90
9824;DHT22;4951;50.778;7.196;2024-01-07T14:33:54;1.00;99.90
9824;DHT22;4951;50.778;7.196;2024-01-07T14:36:27;1.00;99.90
9824;DHT22;4951;50.778;7.196;2024-01-07T14:38:55;1.00;99.90
9824;DHT22;4951;50.778;7.196;2024-01-07T14:41:23;1.00;99.90
9824;DHT22;4951;50.778;7.196;2024-01-07T14:43:53;1.00;99.90
9824;DHT22;4951;50.778;7.196;2024-01-07T14:46:46;1.00;99.90
9824;DHT22;4951;50.778;7.196;2024-01-07T14:49:14;0.90;99.90
9824;DHT22;4951;50.778;7.196;2024-01-07T14:51:47;0.90;91.30
9824;DHT22;4951;50.778;7.196;2024-01-07T14:54:23;0.90;99.90
9824;DHT22;4951;50.778;7.196;2024-01-07T14:57:04;0.90;32.00
9824;DHT22;4951;50.778;7.196;2024-01-07T14:59:40;0.80;25.40
9824;DHT22;4951;50.778;7.196;2024-01-07T15:02:09;0.80;69.40
9824;DHT22;4951;50.778;7.196;2024-01-07T15:04:45;0.80;93.50
9824;DHT22;4951;50.778;7.196;2024-01-07T15:07:18;0.70;10.10
9824;DHT22;4951;50.778;7.196;2024-01-07T15:09:47;0.70;1.00
9824;DHT22;4951;50.778;7.196;2024-01-07T15:12:19;0.70;1.00
9824;DHT22;4951;50.778;7.196;2024-01-07T15:14:51;0.70;1.00
9824;DHT22;4951;50.778;7.196;2024-01-07T15:17:19;0.70;1.00
9824;DHT22;4951;50.778;7.196;2024-01-07T15:19:51;0.60;1.00
9824;DHT22;4951;50.778;7.196;2024-01-07T15:22:35;0.60;1.00
9824;DHT22;4951;50.778;7.196;2024-01-07T15:25:13;0.60;1.00
9824;DHT22;4951;50.778;7.196;2024-01-07T15:27:46;0.60;1.00
9824;DHT22;4951;50.778;7.196;2024-01-07T15:30:19;0.60;1.00
9824;DHT22;4951;50.778;7.196;2024-01-07T15:32:56;0.50;1.00
9824;DHT22;4951;50.778;7.196;2024-01-07T15:35:32;0.50;1.00
9824;DHT22;4951;50.778;7.196;2024-01-07T15:38:04;0.40;1.00
9824;DHT22;4951;50.778;7.196;2024-01-07T15:40:39;0.40;1.00
9824;DHT22;4951;50.778;7.196;2024-01-07T15:43:32;0.40;1.00
9824;DHT22;4951;50.778;7.196;2024-01-07T15:46:06;0.40;1.00
9824;DHT22;4951;50.778;7.196;2024-01-07T15:48:38;0.30;1.00
9824;DHT22;4951;50.778;7.196;2024-01-07T15:51:08;0.30;1.00
9824;DHT22;4951;50.778;7.196;2024-01-07T15:53:40;0.30;1.00
9824;DHT22;4951;50.778;7.196;2024-01-07T15:56:26;0.30;1.00
9824;DHT22;4951;50.778;7.196;2024-01-07T15:59:00;0.20;1.00
9824;DHT22;4951;50.778;7.196;2024-01-07T16:01:34;0.20;99.90
9824;DHT22;4951;50.778;7.196;2024-01-07T16:04:11;0.20;99.90
9824;DHT22;4951;50.778;7.196;2024-01-07T16:06:44;0.20;99.90
9824;DHT22;4951;50.778;7.196;2024-01-07T16:09:16;0.20;99.90
9824;DHT22;4951;50.778;7.196;2024-01-07T16:11:45;0.20;99.90
9824;DHT22;4951;50.778;7.196;2024-01-07T16:14:18;0.10;76.00
9824;DHT22;4951;50.778;7.196;2024-01-07T16:16:51;0.10;99.90
9824;DHT22;4951;50.778;7.196;2024-01-07T16:19:21;0.10;99.90
9824;DHT22;4951;50.778;7.196;2024-01-07T16:21:52;0.10;14.90
9824;DHT22;4951;50.778;7.196;2024-01-07T16:24:23;0.10;1.00
9824;DHT22;4951;50.778;7.196;2024-01-07T16:26:53;0.10;1.00
9824;DHT22;4951;50.778;7.196;2024-01-07T16:29:25;0.10;99.90
9824;DHT22;4951;50.778;7.196;2024-01-07T16:32:14;0.00;1.00
9824;DHT22;4951;50.778;7.196;2024-01-07T16:35:14;-0.10;1.00
9824;DHT22;4951;50.778;7.196;2024-01-07T16:37:45;-0.10;1.00
9824;DHT22;4951;50.778;7.196;2024-01-07T16:40:20;-0.10;1.00
9824;DHT22;4951;50.778;7.196;2024-01-07T16:42:48;-0.10;1.00
9824;DHT22;4951;50.778;7.196;2024-01-07T16:45:17;-0.10;99.90
9824;DHT22;4951;50.778;7.196;2024-01-07T16:47:52;-0.20;99.90
9824;DHT22;4951;50.778;7.196;2024-01-07T16:50:40;-0.20;99.90
9824;DHT22;4951;50.778;7.196;2024-01-07T16:53:07;-0.30;99.90
9824;DHT22;4951;50.778;7.196;2024-01-07T16:55:37;-0.20;99.90
9824;DHT22;4951;50.778;7.196;2024-01-07T16:58:05;-0.30;99.90
9824;DHT22;4951;50.778;7.196;2024-01-07T17:00:33;-0.20;99.90
9824;DHT22;4951;50.778;7.196;2024-01-07T17:03:01;-0.20;99.90
9824;DHT22;4951;50.778;7.196;2024-01-07T17:05:31;-0.20;99.90
9824;DHT22;4951;50.778;7.196;2024-01-07T17:07:58;-0.20;99.90
9824;DHT22;4951;50.778;7.196;2024-01-07T17:10:51;-0.10;99.90
9824;DHT22;4951;50.778;7.196;2024-01-07T17:13:28;-0.10;99.90
9824;DHT22;4951;50.778;7.196;2024-01-07T17:16:00;-0.10;99.90
9824;DHT22;4951;50.778;7.196;2024-01-07T17:18:32;-0.10;99.90
9824;DHT22;4951;50.778;7.196;2024-01-07T17:21:05;-0.20;99.90
9824;DHT22;4951;50.778;7.196;2024-01-07T17:24:27;-0.10;99.00
9824;DHT22;4951;50.778;7.196;2024-01-07T17:27:15;-0.10;53.70
9824;DHT22;4951;50.778;7.196;2024-01-07T17:30:09;-0.10;1.00
9824;DHT22;4951;50.778;7.196;2024-01-07T17:32:41;-0.10;1.00
9824;DHT22;4951;50.778;7.196;2024-01-07T17:35:30;-0.10;1.00
9824;DHT22;4951;50.778;7.196;2024-01-07T17:38:06;-0.10;1.00